createdAt,value
2022-11-24T00:01:29.147Z,5.10
2022-11-24T00:03:59.313Z,5.10
2022-11-24T00:06:28.359Z,4.90
2022-11-24T00:08:57.493Z,5.00
2022-11-24T00:11:32.448Z,4.90
2022-11-24T00:14:01.317Z,4.70
2022-11-24T00:16:31.408Z,4.60
2022-11-24T00:19:01.579Z,4.60
2022-11-24T00:21:32.008Z,4.70
2022-11-24T00:24:01.613Z,4.60
2022-11-24T00:26:33.438Z,4.70
2022-11-24T00:29:03.412Z,4.60
2022-11-24T00:31:36.472Z,4.50
2022-11-24T00:34:06.207Z,4.70
2022-11-24T00:36:36.642Z,4.60
2022-11-24T00:39:07.178Z,4.60
2022-11-24T00:41:36.886Z,4.70
2022-11-24T00:44:05.846Z,4.60
2022-11-24T00:46:35.474Z,4.50
2022-11-24T00:49:03.928Z,4.60
2022-11-24T00:51:32.413Z,4.90
2022-11-24T00:54:01.847Z,4.80
2022-11-24T00:56:31.503Z,8.20
2022-11-24T00:59:01.111Z,4.60
2022-11-24T01:01:31.560Z,4.90
2022-11-24T01:04:02.731Z,5.00
2022-11-24T01:06:32.481Z,5.00
2022-11-24T01:09:00.789Z,5.10
2022-11-24T01:11:51.607Z,5.10
2022-11-24T01:14:22.962Z,5.20
2022-11-24T01:16:51.668Z,5.40
2022-11-24T01:19:20.040Z,5.30
2022-11-24T01:21:48.595Z,5.30
2022-11-24T01:24:17.114Z,5.60
2022-11-24T01:26:45.470Z,5.70
2022-11-24T01:29:13.930Z,5.60
2022-11-24T01:31:43.494Z,5.80
2022-11-24T01:34:13.176Z,5.50
2022-11-24T01:36:41.723Z,5.70
2022-11-24T01:39:10.062Z,5.60
2022-11-24T01:44:26.837Z,5.50
2022-11-24T01:47:00.025Z,5.60
2022-11-24T01:49:39.074Z,5.60
2022-11-24T01:52:12.861Z,5.30
2022-11-24T01:54:46.409Z,5.60
2022-11-24T01:57:18.799Z,5.70
2022-11-24T01:59:49.425Z,5.30
2022-11-24T02:02:25.788Z,4.80
2022-11-24T02:04:55.305Z,5.80
2022-11-24T02:07:23.682Z,5.70
2022-11-24T02:09:56.075Z,5.70
2022-11-24T02:12:25.929Z,6.00
2022-11-24T02:14:55.236Z,6.30
2022-11-24T02:17:24.820Z,6.10
2022-11-24T02:19:59.756Z,6.10
2022-11-24T02:22:40.621Z,6.20
2022-11-24T02:25:14.612Z,5.70
2022-11-24T02:27:50.710Z,5.90
2022-11-24T02:30:22.078Z,5.70
2022-11-24T02:32:51.098Z,6.00
2022-11-24T02:35:19.784Z,5.70
2022-11-24T02:37:48.606Z,5.80
2022-11-24T02:40:18.387Z,5.60
2022-11-24T02:42:48.567Z,5.70
2022-11-24T02:45:17.933Z,5.50
2022-11-24T02:47:46.344Z,5.50
2022-11-24T02:50:14.664Z,5.80
2022-11-24T02:52:42.950Z,5.50
2022-11-24T02:55:37.550Z,5.70
2022-11-24T02:58:07.189Z,5.80
2022-11-24T03:00:35.555Z,5.40
2022-11-24T03:03:04.535Z,5.60
2022-11-24T03:05:32.989Z,5.30
2022-11-24T03:08:01.291Z,5.80
2022-11-24T03:12:58.326Z,5.80
2022-11-24T03:15:27.903Z,5.60
2022-11-24T03:17:59.068Z,5.60
2022-11-24T03:20:27.842Z,5.50
2022-11-24T03:22:56.411Z,5.70
2022-11-24T03:25:25.050Z,5.80
2022-11-24T03:27:57.774Z,5.70
2022-11-24T03:30:27.720Z,5.50
2022-11-24T03:32:56.035Z,5.20
2022-11-24T03:40:21.525Z,5.20
2022-11-24T03:48:10.072Z,5.10
2022-11-24T03:50:38.252Z,5.10
2022-11-24T03:53:06.443Z,5.20
2022-11-24T03:55:37.183Z,5.30
2022-11-24T03:58:05.738Z,5.20
2022-11-24T04:03:04.964Z,5.40
2022-11-24T04:08:06.664Z,5.40
2022-11-24T04:10:37.056Z,5.60
2022-11-24T04:13:04.863Z,5.50
2022-11-24T04:15:33.242Z,5.50
2022-11-24T04:18:01.508Z,5.70
2022-11-24T04:20:30.004Z,5.60
2022-11-24T04:27:59.409Z,5.90
2022-11-24T04:30:30.876Z,6.00
2022-11-24T04:32:59.070Z,6.00
2022-11-24T04:37:56.342Z,5.60
2022-11-24T04:40:25.833Z,5.80
2022-11-24T04:42:55.548Z,6.00
2022-11-24T04:45:24.798Z,6.10
2022-11-24T04:47:53.304Z,6.20
2022-11-24T04:50:21.986Z,6.30
2022-11-24T04:52:52.559Z,6.40
2022-11-24T04:55:23.144Z,6.50
2022-11-24T04:57:52.769Z,6.40
2022-11-24T05:00:21.654Z,6.30
2022-11-24T05:05:18.592Z,6.60
2022-11-24T05:07:46.957Z,6.90
2022-11-24T05:10:32.579Z,7.00
2022-11-24T05:13:03.500Z,7.00
2022-11-24T05:18:00.654Z,6.80
2022-11-24T05:20:28.952Z,6.60
2022-11-24T05:22:57.989Z,7.00
2022-11-24T05:27:54.984Z,6.70
2022-11-24T05:32:56.102Z,6.70
2022-11-24T05:35:26.876Z,6.70
2022-11-24T05:40:23.664Z,6.60
2022-11-24T05:42:52.174Z,6.80
2022-11-24T05:45:25.333Z,6.60
2022-11-24T05:47:53.695Z,6.70
2022-11-24T05:50:24.709Z,6.60
2022-11-24T05:55:23.984Z,6.70
2022-11-24T05:57:59.479Z,6.80
2022-11-24T06:00:29.937Z,6.80
2022-11-24T06:10:25.306Z,7.10
2022-11-24T06:15:22.275Z,7.40
2022-11-24T06:17:57.261Z,7.50
2022-11-24T06:23:01.547Z,7.70
2022-11-24T06:25:30.763Z,7.50
2022-11-24T06:27:58.965Z,7.60
2022-11-24T06:35:34.931Z,7.10
2022-11-24T06:40:31.911Z,7.10
2022-11-24T06:45:28.859Z,7.10
2022-11-24T06:47:57.529Z,7.20
2022-11-24T06:50:33.336Z,7.30
2022-11-24T06:53:01.908Z,7.30
2022-11-24T06:55:30.149Z,7.20
2022-11-24T06:57:58.272Z,7.00
2022-11-24T07:00:29.312Z,6.90
2022-11-24T07:02:59.929Z,7.40
2022-11-24T07:05:29.735Z,7.30
2022-11-24T07:08:00.418Z,7.20
2022-11-24T07:10:29.085Z,7.10
2022-11-24T07:12:57.426Z,7.10
2022-11-24T07:17:54.830Z,7.00
2022-11-24T07:20:23.030Z,7.10
2022-11-24T07:22:56.534Z,7.20
2022-11-24T07:25:24.876Z,7.00
2022-11-24T07:27:57.791Z,7.40
2022-11-24T07:30:26.766Z,7.40
2022-11-24T07:33:00.439Z,7.30
2022-11-24T07:35:31.935Z,7.30
2022-11-24T07:38:04.504Z,7.60
2022-11-24T07:43:02.426Z,7.30
2022-11-24T07:50:29.873Z,7.40
2022-11-24T07:53:04.334Z,7.50
2022-11-24T07:58:02.190Z,7.60
2022-11-24T08:03:01.270Z,7.80
2022-11-24T08:05:31.175Z,7.90
2022-11-24T08:08:01.812Z,7.70
2022-11-24T08:13:02.942Z,7.80
2022-11-24T08:15:33.398Z,7.80
2022-11-24T08:18:03.493Z,7.70
2022-11-24T08:33:15.115Z,7.80
2022-11-24T08:40:45.577Z,7.90
2022-11-24T08:43:16.716Z,8.00
2022-11-24T08:48:15.942Z,8.00
2022-11-24T09:00:41.748Z,8.30
2022-11-24T09:03:13.301Z,8.60
2022-11-24T09:05:57.253Z,8.50
2022-11-24T09:08:25.623Z,8.70
2022-11-24T09:13:24.271Z,8.70
2022-11-24T09:18:22.226Z,8.70
2022-11-24T09:25:49.412Z,8.80
2022-11-24T09:30:47.612Z,8.90
2022-11-24T09:35:44.710Z,8.80
2022-11-24T09:40:41.766Z,8.90
2022-11-24T09:43:16.835Z,8.90
2022-11-24T09:46:05.478Z,8.90
2022-11-24T09:48:37.446Z,9.00
2022-11-24T09:51:06.812Z,9.00
2022-11-24T09:53:42.207Z,8.20
2022-11-24T09:56:20.871Z,9.00
2022-11-24T09:58:51.846Z,9.20
2022-11-24T10:01:24.193Z,9.00
2022-11-24T10:03:54.986Z,9.30
2022-11-24T10:06:29.253Z,9.50
2022-11-24T10:09:46.639Z,9.40
2022-11-24T10:12:25.655Z,9.80
2022-11-24T10:15:19.235Z,10.00
2022-11-24T10:18:17.264Z,10.00
2022-11-24T10:21:05.028Z,9.90
2022-11-24T10:23:53.134Z,10.00
2022-11-24T10:26:28.218Z,10.10
2022-11-24T10:28:58.045Z,9.90
2022-11-24T10:31:32.244Z,9.90
2022-11-24T10:34:11.988Z,10.30
2022-11-24T10:36:50.854Z,10.60
2022-11-24T10:39:25.011Z,10.40
2022-11-24T10:41:59.693Z,10.60
2022-11-24T10:44:28.215Z,10.50
2022-11-24T10:46:57.333Z,10.60
2022-11-24T10:49:31.999Z,10.70
2022-11-24T10:52:09.672Z,10.80
2022-11-24T10:54:55.009Z,10.50
2022-11-24T10:57:30.787Z,10.50
2022-11-24T11:00:02.294Z,10.90
2022-11-24T11:02:39.582Z,10.60
2022-11-24T11:05:42.510Z,10.80
2022-11-24T11:08:24.019Z,10.90
2022-11-24T11:11:08.890Z,10.80
2022-11-24T11:13:37.270Z,10.70
2022-11-24T11:16:25.596Z,10.70
2022-11-24T11:18:54.701Z,9.00
2022-11-24T11:21:32.239Z,10.80
2022-11-24T11:24:01.603Z,10.80
2022-11-24T11:26:36.191Z,10.90
2022-11-24T11:35:07.546Z,11.00
2022-11-24T11:37:39.975Z,11.00
2022-11-24T11:40:17.420Z,11.00
2022-11-24T11:43:02.438Z,11.00
2022-11-24T11:45:36.620Z,11.20
2022-11-24T11:48:24.002Z,11.30
2022-11-24T11:53:51.999Z,11.40
2022-11-24T11:56:27.205Z,11.50
2022-11-24T11:59:13.200Z,11.50
2022-11-24T12:02:09.502Z,11.60
2022-11-24T12:04:46.236Z,11.80
2022-11-24T12:07:35.537Z,11.50
2022-11-24T12:10:16.774Z,11.40
2022-11-24T12:13:02.096Z,11.20
2022-11-24T12:15:34.878Z,11.10
2022-11-24T12:18:48.462Z,11.10
2022-11-24T12:21:19.987Z,11.10
2022-11-24T12:24:07.738Z,11.10
2022-11-24T12:26:44.966Z,11.40
2022-11-24T12:29:43.519Z,11.10
2022-11-24T12:32:26.469Z,11.20
2022-11-24T12:35:00.315Z,11.30
2022-11-24T12:37:47.797Z,11.40
2022-11-24T12:40:24.521Z,11.50
2022-11-24T12:43:04.152Z,11.60
2022-11-24T12:45:41.112Z,11.70
2022-11-24T12:48:25.851Z,11.70
2022-11-24T12:50:56.528Z,11.60
2022-11-24T12:53:27.848Z,11.70
2022-11-24T12:56:00.329Z,11.70
2022-11-24T12:58:41.963Z,11.60
2022-11-24T13:01:20.851Z,11.40
2022-11-24T13:04:02.920Z,11.50
2022-11-24T13:09:29.830Z,11.50
2022-11-24T13:12:10.017Z,11.80
2022-11-24T13:14:43.528Z,11.50
2022-11-24T13:17:39.708Z,11.50
2022-11-24T13:20:17.715Z,11.40
2022-11-24T13:22:52.897Z,11.60
2022-11-24T13:25:24.551Z,11.60
2022-11-24T13:27:55.609Z,11.60
2022-11-24T13:30:57.128Z,11.60
2022-11-24T13:33:40.068Z,11.40
2022-11-24T13:36:35.586Z,11.50
2022-11-24T13:39:06.180Z,11.30
2022-11-24T13:42:41.886Z,11.40
2022-11-24T13:45:00.187Z,11.30
2022-11-24T13:47:39.111Z,11.20
2022-11-24T13:52:49.622Z,11.30
2022-11-24T13:55:35.580Z,11.40
2022-11-24T13:58:28.667Z,11.30
2022-11-24T14:01:06.781Z,11.20
2022-11-24T14:04:07.063Z,11.40
2022-11-24T14:06:39.568Z,11.20
2022-11-24T14:09:27.823Z,11.40
2022-11-24T14:12:05.409Z,11.40
2022-11-24T14:14:33.832Z,11.30
2022-11-24T14:17:14.664Z,11.30
2022-11-24T14:19:48.633Z,11.40
2022-11-24T14:22:22.170Z,11.30
2022-11-24T14:24:55.665Z,11.40
2022-11-24T14:27:31.221Z,11.20
2022-11-24T14:30:03.370Z,11.10
2022-11-24T14:32:34.828Z,11.20
2022-11-24T14:35:21.844Z,11.00
2022-11-24T14:37:50.064Z,10.90
2022-11-24T14:40:39.227Z,10.80
2022-11-24T14:43:17.643Z,10.70
2022-11-24T14:45:51.198Z,10.70
2022-11-24T14:48:25.446Z,10.70
2022-11-24T14:51:05.376Z,10.60
2022-11-24T14:53:34.274Z,11.30
2022-11-24T14:56:23.587Z,10.50
2022-11-24T14:58:52.193Z,10.40
2022-11-24T15:01:29.402Z,10.40
2022-11-24T15:04:46.223Z,10.40
2022-11-24T15:07:25.672Z,10.40
2022-11-24T15:09:57.986Z,10.30
2022-11-24T15:12:30.736Z,10.30
2022-11-24T15:15:02.552Z,10.30
2022-11-24T15:17:34.138Z,10.30
2022-11-24T15:20:09.382Z,10.30
2022-11-24T15:22:41.533Z,10.30
2022-11-24T15:25:32.461Z,10.20
2022-11-24T15:28:01.426Z,10.00
2022-11-24T15:30:31.377Z,10.20
2022-11-24T15:33:00.616Z,10.20
2022-11-24T15:35:32.527Z,10.10
2022-11-24T15:38:02.131Z,10.00
2022-11-24T15:40:30.908Z,10.00
2022-11-24T15:43:03.463Z,9.90
2022-11-24T15:45:36.070Z,9.60
2022-11-24T15:48:04.475Z,9.30
2022-11-24T16:00:29.686Z,8.90
2022-11-24T16:05:39.525Z,8.70
2022-11-24T16:08:13.823Z,8.60
2022-11-24T16:10:43.153Z,8.50
2022-11-24T16:15:41.207Z,7.40
2022-11-24T16:18:09.525Z,7.70
2022-11-24T16:25:37.258Z,7.40
2022-11-24T16:28:06.538Z,7.70
2022-11-24T16:30:35.417Z,7.70
2022-11-24T16:35:38.087Z,7.50
2022-11-24T16:40:39.817Z,7.40
2022-11-24T16:45:40.844Z,7.20
2022-11-24T16:55:40.170Z,7.00
2022-11-24T16:58:08.511Z,6.70
2022-11-24T17:10:38.469Z,6.30
2022-11-24T17:15:45.299Z,6.40
2022-11-24T17:21:02.080Z,6.50
2022-11-24T17:26:06.623Z,6.50
2022-11-24T17:28:37.532Z,6.20
2022-11-24T17:31:10.192Z,6.70
2022-11-24T17:33:41.809Z,6.40
2022-11-24T17:41:08.661Z,6.20
2022-11-24T17:43:39.401Z,6.10
2022-11-24T17:48:37.518Z,5.80
2022-11-24T17:51:08.907Z,6.40
2022-11-24T17:53:39.357Z,5.60
2022-11-24T17:56:09.371Z,5.70
2022-11-24T18:01:12.807Z,6.10
2022-11-24T18:06:11.902Z,6.20
2022-11-24T18:08:44.043Z,6.20
2022-11-24T18:11:14.776Z,6.20
2022-11-24T18:14:01.706Z,6.10
2022-11-24T18:16:31.247Z,6.40
2022-11-24T18:19:10.145Z,6.10
2022-11-24T18:21:41.940Z,5.90
2022-11-24T18:24:11.458Z,5.90
2022-11-24T18:26:46.260Z,6.20
2022-11-24T18:31:44.488Z,6.10
2022-11-24T18:34:12.798Z,6.40
2022-11-24T18:39:17.727Z,6.30
2022-11-24T18:41:46.468Z,5.70
2022-11-24T18:44:17.103Z,5.60
2022-11-24T18:46:45.655Z,5.50
2022-11-24T18:49:16.288Z,6.00
2022-11-24T18:54:16.757Z,5.60
2022-11-24T18:59:14.289Z,5.80
2022-11-24T19:06:49.035Z,5.70
2022-11-24T19:09:20.870Z,5.70
2022-11-24T19:17:23.083Z,5.40
2022-11-24T19:19:53.192Z,6.00
2022-11-24T19:24:58.023Z,5.90
2022-11-24T19:27:31.683Z,5.90
2022-11-24T19:30:03.877Z,5.90
2022-11-24T19:32:36.678Z,5.90
2022-11-24T19:37:40.025Z,6.20
2022-11-24T19:40:13.703Z,5.90
2022-11-24T19:42:44.403Z,6.00
2022-11-24T19:47:46.548Z,5.80
2022-11-24T19:52:49.502Z,5.70
2022-11-24T19:55:21.658Z,4.80
2022-11-24T19:57:52.154Z,5.30
2022-11-24T20:00:29.142Z,5.50
2022-11-24T20:03:03.958Z,5.60
2022-11-24T20:05:35.375Z,5.50
2022-11-24T20:08:04.414Z,5.40
2022-11-24T20:10:35.684Z,5.40
2022-11-24T20:18:11.749Z,5.60
2022-11-24T20:23:09.558Z,5.30
2022-11-24T20:33:13.155Z,5.60
2022-11-24T20:38:10.136Z,6.00
2022-11-24T20:40:41.321Z,5.90
2022-11-24T20:45:39.448Z,4.40
2022-11-24T21:00:38.311Z,6.30
2022-11-24T21:27:59.622Z,6.60
2022-11-24T21:30:28.548Z,6.50
2022-11-24T21:35:25.912Z,6.50
2022-11-24T21:37:54.417Z,6.50
2022-11-24T21:45:22.154Z,6.40
2022-11-24T21:47:50.578Z,6.40
2022-11-24T21:52:47.713Z,6.40
2022-11-24T21:57:45.242Z,6.40
2022-11-24T22:00:17.899Z,6.50
2022-11-24T22:02:46.491Z,6.50
2022-11-24T22:05:15.228Z,6.50
2022-11-24T22:15:12.588Z,6.50
2022-11-24T22:17:42.293Z,6.40
2022-11-24T22:22:39.816Z,6.30
2022-11-24T22:25:09.550Z,6.30
2022-11-24T22:27:37.944Z,6.20
2022-11-24T22:30:07.695Z,6.20
2022-11-24T22:32:39.049Z,6.20
2022-11-24T22:35:12.202Z,6.20
2022-11-24T22:37:40.758Z,5.80
2022-11-24T22:40:10.278Z,5.70
2022-11-24T22:42:38.531Z,5.60
2022-11-24T22:45:10.098Z,5.70
2022-11-24T22:47:38.413Z,5.70
2022-11-24T22:50:14.226Z,5.70
2022-11-24T22:52:42.801Z,5.60
2022-11-24T22:55:11.095Z,5.50
2022-11-24T22:57:39.308Z,5.50
2022-11-24T23:00:09.100Z,5.50
2022-11-24T23:02:37.585Z,5.40
2022-11-24T23:05:06.460Z,5.40
2022-11-24T23:10:05.215Z,5.30
